sensor_id;sensor_type;location;lat;lon;timestamp;temperature;humidity
14210;DHT22;7188;56.070;12.698;2023-07-31T00:01:46;14.20;99.90
14210;DHT22;7188;56.070;12.698;2023-07-31T00:04:11;14.20;99.90
14210;DHT22;7188;56.070;12.698;2023-07-31T00:06:37;14.20;99.90
14210;DHT22;7188;56.070;12.698;2023-07-31T00:09:02;14.20;99.90
14210;DHT22;7188;56.070;12.698;2023-07-31T00:11:28;14.10;99.90
14210;DHT22;7188;56.070;12.698;2023-07-31T00:13:54;14.10;99.90
14210;DHT22;7188;56.070;12.698;2023-07-31T00:16:19;14.10;99.90
14210;DHT22;7188;56.070;12.698;2023-07-31T00:18:45;14.00;99.90
14210;DHT22;7188;56.070;12.698;2023-07-31T00:21:11;14.00;99.90
14210;DHT22;7188;56.070;12.698;2023-07-31T00:23:36;14.00;99.90
14210;DHT22;7188;56.070;12.698;2023-07-31T00:26:02;14.00;99.90
14210;DHT22;7188;56.070;12.698;2023-07-31T00:28:27;14.00;99.90
14210;DHT22;7188;56.070;12.698;2023-07-31T00:30:54;14.00;99.90
14210;DHT22;7188;56.070;12.698;2023-07-31T00:33:41;14.00;99.90
14210;DHT22;7188;56.070;12.698;2023-07-31T00:36:07;14.00;99.90
14210;DHT22;7188;56.070;12.698;2023-07-31T00:38:32;14.00;99.90
14210;DHT22;7188;56.070;12.698;2023-07-31T00:40:58;14.00;99.90
14210;DHT22;7188;56.070;12.698;2023-07-31T00:43:24;14.00;99.90
14210;DHT22;7188;56.070;12.698;2023-07-31T00:45:50;14.00;99.90
14210;DHT22;7188;56.070;12.698;2023-07-31T00:48:16;13.90;99.90
14210;DHT22;7188;56.070;12.698;2023-07-31T00:50:41;13.90;99.90
14210;DHT22;7188;56.070;12.698;2023-07-31T00:53:07;13.90;99.90
14210;DHT22;7188;56.070;12.698;2023-07-31T00:55:33;13.90;99.90
14210;DHT22;7188;56.070;12.698;2023-07-31T00:57:59;13.90;99.90
14210;DHT22;7188;56.070;12.698;2023-07-31T01:00:24;13.90;99.90
14210;DHT22;7188;56.070;12.698;2023-07-31T01:02:51;13.90;99.90
14210;DHT22;7188;56.070;12.698;2023-07-31T01:05:24;13.90;99.90
14210;DHT22;7188;56.070;12.698;2023-07-31T01:08:15;13.90;99.90
14210;DHT22;7188;56.070;12.698;2023-07-31T01:10:49;13.90;99.90
14210;DHT22;7188;56.070;12.698;2023-07-31T01:13:17;13.90;99.90
14210;DHT22;7188;56.070;12.698;2023-07-31T01:15:43;13.90;99.90
14210;DHT22;7188;56.070;12.698;2023-07-31T01:18:08;13.90;99.90
14210;DHT22;7188;56.070;12.698;2023-07-31T01:20:35;13.90;99.90
14210;DHT22;7188;56.070;12.698;2023-07-31T01:26:24;13.90;99.90
14210;DHT22;7188;56.070;12.698;2023-07-31T01:31:39;13.80;99.90
14210;DHT22;7188;56.070;12.698;2023-07-31T01:34:08;13.80;99.90
14210;DHT22;7188;56.070;12.698;2023-07-31T01:36:35;13.70;99.90
14210;DHT22;7188;56.070;12.698;2023-07-31T01:39:02;13.70;99.90
14210;DHT22;7188;56.070;12.698;2023-07-31T01:41:31;13.70;99.90
14210;DHT22;7188;56.070;12.698;2023-07-31T01:43:56;13.80;99.90
14210;DHT22;7188;56.070;12.698;2023-07-31T01:46:22;13.80;99.90
14210;DHT22;7188;56.070;12.698;2023-07-31T01:48:47;13.80;99.90
14210;DHT22;7188;56.070;12.698;2023-07-31T01:51:13;13.80;99.90
14210;DHT22;7188;56.070;12.698;2023-07-31T01:53:39;13.80;99.90
14210;DHT22;7188;56.070;12.698;2023-07-31T01:56:04;13.70;99.90
14210;DHT22;7188;56.070;12.698;2023-07-31T01:58:30;13.70;99.90
14210;DHT22;7188;56.070;12.698;2023-07-31T02:00:56;13.70;99.90
14210;DHT22;7188;56.070;12.698;2023-07-31T02:03:21;13.70;99.90
14210;DHT22;7188;56.070;12.698;2023-07-31T02:05:48;13.70;99.90
14210;DHT22;7188;56.070;12.698;2023-07-31T02:08:14;13.70;99.90
14210;DHT22;7188;56.070;12.698;2023-07-31T02:10:40;13.80;99.90
14210;DHT22;7188;56.070;12.698;2023-07-31T02:13:06;13.70;99.90
14210;DHT22;7188;56.070;12.698;2023-07-31T02:15:48;13.80;99.90
14210;DHT22;7188;56.070;12.698;2023-07-31T02:18:13;13.80;99.90
14210;DHT22;7188;56.070;12.698;2023-07-31T02:20:39;13.80;99.90
14210;DHT22;7188;56.070;12.698;2023-07-31T02:23:04;13.80;99.90
14210;DHT22;7188;56.070;12.698;2023-07-31T02:25:30;13.80;99.90
14210;DHT22;7188;56.070;12.698;2023-07-31T02:27:56;13.80;99.90
14210;DHT22;7188;56.070;12.698;2023-07-31T02:30:22;13.80;99.90
14210;DHT22;7188;56.070;12.698;2023-07-31T02:32:47;13.80;99.90
14210;DHT22;7188;56.070;12.698;2023-07-31T02:35:13;13.80;99.90
14210;DHT22;7188;56.070;12.698;2023-07-31T02:37:44;13.80;99.90
14210;DHT22;7188;56.070;12.698;2023-07-31T02:40:13;13.80;99.90
14210;DHT22;7188;56.070;12.698;2023-07-31T02:42:38;13.80;99.90
14210;DHT22;7188;56.070;12.698;2023-07-31T02:45:05;13.80;99.90
14210;DHT22;7188;56.070;12.698;2023-07-31T02:47:30;13.80;99.90
14210;DHT22;7188;56.070;12.698;2023-07-31T02:49:56;13.80;99.90
14210;DHT22;7188;56.070;12.698;2023-07-31T02:52:22;13.80;99.90
14210;DHT22;7188;56.070;12.698;2023-07-31T02:54:47;13.80;99.90
14210;DHT22;7188;56.070;12.698;2023-07-31T02:57:13;13.80;99.90
14210;DHT22;7188;56.070;12.698;2023-07-31T02:59:38;13.80;99.90
14210;DHT22;7188;56.070;12.698;2023-07-31T03:02:04;13.80;99.90
14210;DHT22;7188;56.070;12.698;2023-07-31T03:04:30;13.90;99.90
14210;DHT22;7188;56.070;12.698;2023-07-31T03:06:55;13.90;99.90
14210;DHT22;7188;56.070;12.698;2023-07-31T03:09:21;13.90;99.90
14210;DHT22;7188;56.070;12.698;2023-07-31T03:11:47;13.90;99.90
14210;DHT22;7188;56.070;12.698;2023-07-31T03:14:12;13.90;99.90
14210;DHT22;7188;56.070;12.698;2023-07-31T03:16:38;13.90;99.90
14210;DHT22;7188;56.070;12.698;2023-07-31T03:19:03;13.90;99.90
14210;DHT22;7188;56.070;12.698;2023-07-31T03:21:29;14.00;99.90
14210;DHT22;7188;56.070;12.698;2023-07-31T03:23:55;13.90;99.90
14210;DHT22;7188;56.070;12.698;2023-07-31T03:26:20;13.90;99.90
14210;DHT22;7188;56.070;12.698;2023-07-31T03:28:46;13.90;99.90
14210;DHT22;7188;56.070;12.698;2023-07-31T03:31:12;13.90;99.90
14210;DHT22;7188;56.070;12.698;2023-07-31T03:34:03;13.90;99.90
14210;DHT22;7188;56.070;12.698;2023-07-31T03:36:29;13.90;99.90
14210;DHT22;7188;56.070;12.698;2023-07-31T03:38:54;14.00;99.90
14210;DHT22;7188;56.070;12.698;2023-07-31T03:41:20;14.10;99.90
14210;DHT22;7188;56.070;12.698;2023-07-31T03:43:50;14.20;99.90
14210;DHT22;7188;56.070;12.698;2023-07-31T03:46:17;14.20;99.90
14210;DHT22;7188;56.070;12.698;2023-07-31T03:48:43;14.20;99.90
14210;DHT22;7188;56.070;12.698;2023-07-31T03:51:08;14.20;99.90
14210;DHT22;7188;56.070;12.698;2023-07-31T03:53:34;14.30;99.90
14210;DHT22;7188;56.070;12.698;2023-07-31T03:56:00;14.30;99.90
14210;DHT22;7188;56.070;12.698;2023-07-31T03:58:25;14.40;99.90
14210;DHT22;7188;56.070;12.698;2023-07-31T04:00:51;14.40;99.90
14210;DHT22;7188;56.070;12.698;2023-07-31T04:03:17;14.30;99.90
14210;DHT22;7188;56.070;12.698;2023-07-31T04:05:42;14.30;99.90
14210;DHT22;7188;56.070;12.698;2023-07-31T04:08:08;14.40;99.90
14210;DHT22;7188;56.070;12.698;2023-07-31T04:10:33;14.60;99.90
14210;DHT22;7188;56.070;12.698;2023-07-31T04:13:00;14.60;99.90
14210;DHT22;7188;56.070;12.698;2023-07-31T04:15:28;14.70;99.90
14210;DHT22;7188;56.070;12.698;2023-07-31T04:17:53;14.80;99.90
14210;DHT22;7188;56.070;12.698;2023-07-31T04:20:19;15.00;99.90
14210;DHT22;7188;56.070;12.698;2023-07-31T04:22:45;15.20;99.90
14210;DHT22;7188;56.070;12.698;2023-07-31T04:25:10;15.30;99.90
14210;DHT22;7188;56.070;12.698;2023-07-31T04:27:36;15.40;99.90
14210;DHT22;7188;56.070;12.698;2023-07-31T04:30:02;15.60;99.90
14210;DHT22;7188;56.070;12.698;2023-07-31T04:32:28;15.70;99.90
14210;DHT22;7188;56.070;12.698;2023-07-31T04:34:55;15.80;99.90
14210;DHT22;7188;56.070;12.698;2023-07-31T04:37:20;15.90;99.90
14210;DHT22;7188;56.070;12.698;2023-07-31T04:39:46;16.00;99.90
14210;DHT22;7188;56.070;12.698;2023-07-31T04:42:13;16.00;99.90
14210;DHT22;7188;56.070;12.698;2023-07-31T04:44:39;16.10;99.90
14210;DHT22;7188;56.070;12.698;2023-07-31T04:47:05;16.10;99.90
14210;DHT22;7188;56.070;12.698;2023-07-31T04:49:31;16.10;99.90
14210;DHT22;7188;56.070;12.698;2023-07-31T04:51:57;16.20;99.90
14210;DHT22;7188;56.070;12.698;2023-07-31T04:54:22;16.40;99.90
14210;DHT22;7188;56.070;12.698;2023-07-31T04:56:48;16.40;99.90
14210;DHT22;7188;56.070;12.698;2023-07-31T04:59:13;16.50;99.90
14210;DHT22;7188;56.070;12.698;2023-07-31T05:01:39;16.70;99.90
14210;DHT22;7188;56.070;12.698;2023-07-31T05:04:05;16.90;99.90
14210;DHT22;7188;56.070;12.698;2023-07-31T05:06:30;16.90;99.90
14210;DHT22;7188;56.070;12.698;2023-07-31T05:08:56;17.00;99.90
14210;DHT22;7188;56.070;12.698;2023-07-31T05:11:21;16.90;99.90
14210;DHT22;7188;56.070;12.698;2023-07-31T05:13:47;16.90;99.90
14210;DHT22;7188;56.070;12.698;2023-07-31T05:16:13;16.80;99.90
14210;DHT22;7188;56.070;12.698;2023-07-31T05:18:38;16.90;99.90
14210;DHT22;7188;56.070;12.698;2023-07-31T05:21:04;17.00;99.90
14210;DHT22;7188;56.070;12.698;2023-07-31T05:23:30;17.00;99.90
14210;DHT22;7188;56.070;12.698;2023-07-31T05:26:06;17.00;99.90
14210;DHT22;7188;56.070;12.698;2023-07-31T05:28:34;17.30;99.90
14210;DHT22;7188;56.070;12.698;2023-07-31T05:31:03;17.50;99.90
14210;DHT22;7188;56.070;12.698;2023-07-31T05:33:29;17.50;99.90
14210;DHT22;7188;56.070;12.698;2023-07-31T05:35:56;17.50;99.90
14210;DHT22;7188;56.070;12.698;2023-07-31T05:38:22;17.70;99.90
14210;DHT22;7188;56.070;12.698;2023-07-31T05:40:47;17.80;99.90
14210;DHT22;7188;56.070;12.698;2023-07-31T05:43:13;17.90;99.90
14210;DHT22;7188;56.070;12.698;2023-07-31T05:45:40;17.90;99.90
14210;DHT22;7188;56.070;12.698;2023-07-31T05:48:08;18.00;33.50
14210;DHT22;7188;56.070;12.698;2023-07-31T05:50:34;18.00;1.00
14210;DHT22;7188;56.070;12.698;2023-07-31T05:53:00;18.10;1.00
14210;DHT22;7188;56.070;12.698;2023-07-31T05:55:26;18.10;1.00
14210;DHT22;7188;56.070;12.698;2023-07-31T05:57:54;18.10;1.00
14210;DHT22;7188;56.070;12.698;2023-07-31T06:00:20;18.10;1.00
14210;DHT22;7188;56.070;12.698;2023-07-31T06:02:47;18.10;1.00
14210;DHT22;7188;56.070;12.698;2023-07-31T06:05:13;18.10;99.90
14210;DHT22;7188;56.070;12.698;2023-07-31T06:07:38;18.00;99.90
14210;DHT22;7188;56.070;12.698;2023-07-31T06:10:05;17.80;1.00
14210;DHT22;7188;56.070;12.698;2023-07-31T06:12:34;17.90;1.00
14210;DHT22;7188;56.070;12.698;2023-07-31T06:15:00;17.90;1.00
14210;DHT22;7188;56.070;12.698;2023-07-31T06:17:26;17.90;1.00
14210;DHT22;7188;56.070;12.698;2023-07-31T06:20:22;17.90;1.00
14210;DHT22;7188;56.070;12.698;2023-07-31T06:22:48;17.80;1.00
14210;DHT22;7188;56.070;12.698;2023-07-31T06:25:14;17.80;1.00
14210;DHT22;7188;56.070;12.698;2023-07-31T06:27:39;17.70;1.00
14210;DHT22;7188;56.070;12.698;2023-07-31T06:30:06;17.60;1.00
14210;DHT22;7188;56.070;12.698;2023-07-31T06:32:32;17.50;1.00
14210;DHT22;7188;56.070;12.698;2023-07-31T06:34:57;17.40;1.00
14210;DHT22;7188;56.070;12.698;2023-07-31T06:37:23;17.40;51.70
14210;DHT22;7188;56.070;12.698;2023-07-31T06:39:49;17.40;75.00
14210;DHT22;7188;56.070;12.698;2023-07-31T06:42:14;17.40;1.00
14210;DHT22;7188;56.070;12.698;2023-07-31T06:44:40;17.40;1.00
14210;DHT22;7188;56.070;12.698;2023-07-31T06:47:24;17.30;70.10
14210;DHT22;7188;56.070;12.698;2023-07-31T06:49:49;17.30;99.90
14210;DHT22;7188;56.070;12.698;2023-07-31T06:52:15;17.30;99.90
14210;DHT22;7188;56.070;12.698;2023-07-31T06:55:03;17.30;99.90
14210;DHT22;7188;56.070;12.698;2023-07-31T06:57:29;17.30;99.90
14210;DHT22;7188;56.070;12.698;2023-07-31T06:59:55;17.30;99.90
14210;DHT22;7188;56.070;12.698;2023-07-31T07:02:20;17.20;99.90
14210;DHT22;7188;56.070;12.698;2023-07-31T07:04:46;17.00;1.00
14210;DHT22;7188;56.070;12.698;2023-07-31T07:07:12;17.00;1.00
14210;DHT22;7188;56.070;12.698;2023-07-31T07:09:37;16.90;99.90
14210;DHT22;7188;56.070;12.698;2023-07-31T07:12:04;17.00;99.90
14210;DHT22;7188;56.070;12.698;2023-07-31T07:14:30;16.90;99.90
14210;DHT22;7188;56.070;12.698;2023-07-31T07:16:55;16.90;99.90
14210;DHT22;7188;56.070;12.698;2023-07-31T07:19:21;16.90;99.90
14210;DHT22;7188;56.070;12.698;2023-07-31T07:21:47;16.80;1.00
14210;DHT22;7188;56.070;12.698;2023-07-31T07:24:12;16.90;1.00
14210;DHT22;7188;56.070;12.698;2023-07-31T07:26:38;17.10;1.00
14210;DHT22;7188;56.070;12.698;2023-07-31T07:29:04;17.40;1.00
14210;DHT22;7188;56.070;12.698;2023-07-31T07:31:32;17.80;1.00
14210;DHT22;7188;56.070;12.698;2023-07-31T07:33:59;18.20;99.90
14210;DHT22;7188;56.070;12.698;2023-07-31T07:36:27;18.50;90.30
14210;DHT22;7188;56.070;12.698;2023-07-31T07:38:53;18.70;1.00
14210;DHT22;7188;56.070;12.698;2023-07-31T07:41:19;18.90;99.90
14210;DHT22;7188;56.070;12.698;2023-07-31T07:43:44;19.10;1.00
14210;DHT22;7188;56.070;12.698;2023-07-31T07:46:10;19.10;1.00
14210;DHT22;7188;56.070;12.698;2023-07-31T07:48:35;19.20;91.20
14210;DHT22;7188;56.070;12.698;2023-07-31T07:51:01;19.10;99.90
14210;DHT22;7188;56.070;12.698;2023-07-31T07:53:27;18.80;1.00
14210;DHT22;7188;56.070;12.698;2023-07-31T07:55:52;18.80;1.00
14210;DHT22;7188;56.070;12.698;2023-07-31T07:58:18;18.80;1.00
14210;DHT22;7188;56.070;12.698;2023-07-31T08:00:50;19.00;1.00
14210;DHT22;7188;56.070;12.698;2023-07-31T08:03:15;19.10;1.00
14210;DHT22;7188;56.070;12.698;2023-07-31T08:05:42;19.10;1.00
14210;DHT22;7188;56.070;12.698;2023-07-31T08:08:08;19.20;28.20
14210;DHT22;7188;56.070;12.698;2023-07-31T08:10:34;19.10;99.90
14210;DHT22;7188;56.070;12.698;2023-07-31T08:13:00;19.20;99.90
14210;DHT22;7188;56.070;12.698;2023-07-31T08:15:26;19.10;99.90
14210;DHT22;7188;56.070;12.698;2023-07-31T08:17:51;19.10;99.90
14210;DHT22;7188;56.070;12.698;2023-07-31T08:20:17;19.10;99.90
14210;DHT22;7188;56.070;12.698;2023-07-31T08:22:43;19.00;1.00
14210;DHT22;7188;56.070;12.698;2023-07-31T08:25:08;19.10;1.00
14210;DHT22;7188;56.070;12.698;2023-07-31T08:27:34;19.10;1.00
14210;DHT22;7188;56.070;12.698;2023-07-31T08:29:59;19.10;1.00
14210;DHT22;7188;56.070;12.698;2023-07-31T08:32:25;19.20;1.00
14210;DHT22;7188;56.070;12.698;2023-07-31T08:34:51;19.40;1.00
14210;DHT22;7188;56.070;12.698;2023-07-31T08:37:16;19.60;1.00
14210;DHT22;7188;56.070;12.698;2023-07-31T08:39:42;19.90;99.90
14210;DHT22;7188;56.070;12.698;2023-07-31T08:42:08;20.00;1.00
14210;DHT22;7188;56.070;12.698;2023-07-31T08:44:34;20.10;1.00
14210;DHT22;7188;56.070;12.698;2023-07-31T08:47:01;20.10;1.00
14210;DHT22;7188;56.070;12.698;2023-07-31T08:49:27;20.30;1.00
14210;DHT22;7188;56.070;12.698;2023-07-31T08:51:54;20.40;1.00
14210;DHT22;7188;56.070;12.698;2023-07-31T08:54:20;20.40;1.00
14210;DHT22;7188;56.070;12.698;2023-07-31T08:56:46;20.50;1.00
14210;DHT22;7188;56.070;12.698;2023-07-31T08:59:13;20.70;99.90
14210;DHT22;7188;56.070;12.698;2023-07-31T09:01:43;20.90;99.90
14210;DHT22;7188;56.070;12.698;2023-07-31T09:04:13;20.70;99.90
14210;DHT22;7188;56.070;12.698;2023-07-31T09:06:39;20.70;99.90
14210;DHT22;7188;56.070;12.698;2023-07-31T09:09:06;20.70;99.90
14210;DHT22;7188;56.070;12.698;2023-07-31T09:11:32;20.70;37.10
14210;DHT22;7188;56.070;12.698;2023-07-31T09:13:58;20.60;54.00
14210;DHT22;7188;56.070;12.698;2023-07-31T09:16:28;20.60;75.10
14210;DHT22;7188;56.070;12.698;2023-07-31T09:18:57;20.30;99.90
14210;DHT22;7188;56.070;12.698;2023-07-31T09:21:24;20.10;99.90
14210;DHT22;7188;56.070;12.698;2023-07-31T09:23:51;20.10;1.00
14210;DHT22;7188;56.070;12.698;2023-07-31T09:28:58;19.70;1.00
14210;DHT22;7188;56.070;12.698;2023-07-31T09:31:39;19.50;1.00
14210;DHT22;7188;56.070;12.698;2023-07-31T09:34:06;19.50;99.90
14210;DHT22;7188;56.070;12.698;2023-07-31T09:36:32;19.40;99.90
14210;DHT22;7188;56.070;12.698;2023-07-31T09:39:02;19.50;99.90
14210;DHT22;7188;56.070;12.698;2023-07-31T09:41:30;19.70;99.90
14210;DHT22;7188;56.070;12.698;2023-07-31T09:43:55;19.80;99.90
14210;DHT22;7188;56.070;12.698;2023-07-31T09:46:21;19.80;34.60
14210;DHT22;7188;56.070;12.698;2023-07-31T09:48:47;19.70;91.70
14210;DHT22;7188;56.070;12.698;2023-07-31T09:51:13;19.60;1.00
14210;DHT22;7188;56.070;12.698;2023-07-31T09:53:38;19.50;1.00
14210;DHT22;7188;56.070;12.698;2023-07-31T09:56:05;19.60;1.00
14210;DHT22;7188;56.070;12.698;2023-07-31T09:58:34;19.50;1.00
14210;DHT22;7188;56.070;12.698;2023-07-31T10:01:02;19.50;1.00
14210;DHT22;7188;56.070;12.698;2023-07-31T10:03:29;19.70;1.00
14210;DHT22;7188;56.070;12.698;2023-07-31T10:06:00;19.80;1.00
14210;DHT22;7188;56.070;12.698;2023-07-31T10:08:28;19.70;99.90
14210;DHT22;7188;56.070;12.698;2023-07-31T10:10:59;19.70;99.90
14210;DHT22;7188;56.070;12.698;2023-07-31T10:13:25;19.60;99.90
14210;DHT22;7188;56.070;12.698;2023-07-31T10:15:51;19.50;99.90
14210;DHT22;7188;56.070;12.698;2023-07-31T10:18:18;19.30;99.90
14210;DHT22;7188;56.070;12.698;2023-07-31T10:20:44;19.20;99.90
14210;DHT22;7188;56.070;12.698;2023-07-31T10:23:11;19.30;99.90
14210;DHT22;7188;56.070;12.698;2023-07-31T10:25:37;19.40;99.90
14210;DHT22;7188;56.070;12.698;2023-07-31T10:28:04;19.80;1.00
14210;DHT22;7188;56.070;12.698;2023-07-31T10:30:31;20.10;99.90
14210;DHT22;7188;56.070;12.698;2023-07-31T10:32:58;20.30;99.90
14210;DHT22;7188;56.070;12.698;2023-07-31T10:35:24;20.50;99.90
14210;DHT22;7188;56.070;12.698;2023-07-31T10:37:50;20.70;99.90
14210;DHT22;7188;56.070;12.698;2023-07-31T10:40:25;20.90;91.00
14210;DHT22;7188;56.070;12.698;2023-07-31T10:42:57;21.00;1.00
14210;DHT22;7188;56.070;12.698;2023-07-31T10:48:16;21.10;1.00
14210;DHT22;7188;56.070;12.698;2023-07-31T10:50:51;21.00;1.00
14210;DHT22;7188;56.070;12.698;2023-07-31T10:53:30;21.00;1.00
14210;DHT22;7188;56.070;12.698;2023-07-31T10:56:00;21.00;1.00
14210;DHT22;7188;56.070;12.698;2023-07-31T10:58:26;21.20;1.00
14210;DHT22;7188;56.070;12.698;2023-07-31T11:01:23;21.30;1.00
14210;DHT22;7188;56.070;12.698;2023-07-31T11:03:49;21.20;1.00
14210;DHT22;7188;56.070;12.698;2023-07-31T11:06:18;21.50;1.00
14210;DHT22;7188;56.070;12.698;2023-07-31T11:08:45;21.50;99.90
14210;DHT22;7188;56.070;12.698;2023-07-31T11:11:13;21.30;99.90
14210;DHT22;7188;56.070;12.698;2023-07-31T11:16:06;21.20;99.90
14210;DHT22;7188;56.070;12.698;2023-07-31T11:18:32;21.00;1.00
14210;DHT22;7188;56.070;12.698;2023-07-31T11:20:57;20.90;1.00
14210;DHT22;7188;56.070;12.698;2023-07-31T11:23:23;21.10;1.00
14210;DHT22;7188;56.070;12.698;2023-07-31T11:25:50;21.20;1.00
14210;DHT22;7188;56.070;12.698;2023-07-31T11:28:17;21.30;1.00
14210;DHT22;7188;56.070;12.698;2023-07-31T11:30:44;21.40;99.90
14210;DHT22;7188;56.070;12.698;2023-07-31T11:33:12;21.50;99.90
14210;DHT22;7188;56.070;12.698;2023-07-31T11:35:46;21.60;99.90
14210;DHT22;7188;56.070;12.698;2023-07-31T11:38:14;21.50;99.90
14210;DHT22;7188;56.070;12.698;2023-07-31T11:40:46;21.70;99.90
14210;DHT22;7188;56.070;12.698;2023-07-31T11:43:11;21.70;99.90
14210;DHT22;7188;56.070;12.698;2023-07-31T11:45:41;21.60;99.90
14210;DHT22;7188;56.070;12.698;2023-07-31T11:48:07;21.50;99.90
14210;DHT22;7188;56.070;12.698;2023-07-31T11:50:34;21.50;99.90
14210;DHT22;7188;56.070;12.698;2023-07-31T11:53:03;21.30;99.90
14210;DHT22;7188;56.070;12.698;2023-07-31T11:55:31;21.30;99.90
14210;DHT22;7188;56.070;12.698;2023-07-31T11:57:58;21.10;99.90
14210;DHT22;7188;56.070;12.698;2023-07-31T12:00:24;21.00;99.90
14210;DHT22;7188;56.070;12.698;2023-07-31T12:02:51;20.80;99.90
14210;DHT22;7188;56.070;12.698;2023-07-31T12:05:22;20.70;99.90
14210;DHT22;7188;56.070;12.698;2023-07-31T12:07:53;20.70;99.90
14210;DHT22;7188;56.070;12.698;2023-07-31T12:10:38;21.00;99.90
14210;DHT22;7188;56.070;12.698;2023-07-31T12:13:09;21.20;1.00
14210;DHT22;7188;56.070;12.698;2023-07-31T12:15:43;21.30;1.00
14210;DHT22;7188;56.070;12.698;2023-07-31T12:18:14;21.50;1.00
14210;DHT22;7188;56.070;12.698;2023-07-31T12:20:45;21.60;99.90
14210;DHT22;7188;56.070;12.698;2023-07-31T12:28:48;21.20;99.90
14210;DHT22;7188;56.070;12.698;2023-07-31T12:31:16;21.20;99.90
14210;DHT22;7188;56.070;12.698;2023-07-31T12:33:46;21.40;99.90
14210;DHT22;7188;56.070;12.698;2023-07-31T12:36:14;21.60;99.90
14210;DHT22;7188;56.070;12.698;2023-07-31T12:38:41;21.70;99.90
14210;DHT22;7188;56.070;12.698;2023-07-31T12:41:07;21.80;99.90
14210;DHT22;7188;56.070;12.698;2023-07-31T12:43:37;22.00;99.90
14210;DHT22;7188;56.070;12.698;2023-07-31T12:46:03;22.00;99.90
14210;DHT22;7188;56.070;12.698;2023-07-31T12:48:29;22.00;99.90
14210;DHT22;7188;56.070;12.698;2023-07-31T12:50:55;22.10;99.90
14210;DHT22;7188;56.070;12.698;2023-07-31T12:53:20;22.20;99.90
14210;DHT22;7188;56.070;12.698;2023-07-31T12:55:47;22.20;99.90
14210;DHT22;7188;56.070;12.698;2023-07-31T12:58:12;22.10;99.90
14210;DHT22;7188;56.070;12.698;2023-07-31T13:00:50;22.10;99.90
14210;DHT22;7188;56.070;12.698;2023-07-31T13:03:16;22.00;95.80
14210;DHT22;7188;56.070;12.698;2023-07-31T13:05:41;22.00;99.90
14210;DHT22;7188;56.070;12.698;2023-07-31T13:08:07;22.00;99.90
14210;DHT22;7188;56.070;12.698;2023-07-31T13:10:33;22.00;99.90
14210;DHT22;7188;56.070;12.698;2023-07-31T13:12:58;22.00;99.90
14210;DHT22;7188;56.070;12.698;2023-07-31T13:15:24;21.90;44.70
14210;DHT22;7188;56.070;12.698;2023-07-31T13:17:49;22.10;35.90
14210;DHT22;7188;56.070;12.698;2023-07-31T13:20:15;21.90;24.20
14210;DHT22;7188;56.070;12.698;2023-07-31T13:22:41;21.90;37.20
14210;DHT22;7188;56.070;12.698;2023-07-31T13:25:07;21.90;77.40
14210;DHT22;7188;56.070;12.698;2023-07-31T13:27:33;22.00;87.70
14210;DHT22;7188;56.070;12.698;2023-07-31T13:29:59;22.10;99.90
14210;DHT22;7188;56.070;12.698;2023-07-31T13:32:25;22.20;99.90
14210;DHT22;7188;56.070;12.698;2023-07-31T13:34:51;22.30;98.40
14210;DHT22;7188;56.070;12.698;2023-07-31T13:37:32;22.40;99.40
14210;DHT22;7188;56.070;12.698;2023-07-31T13:39:57;22.70;93.30
14210;DHT22;7188;56.070;12.698;2023-07-31T13:42:23;22.70;43.00
14210;DHT22;7188;56.070;12.698;2023-07-31T13:44:49;22.60;64.10
14210;DHT22;7188;56.070;12.698;2023-07-31T13:47:14;22.70;82.40
14210;DHT22;7188;56.070;12.698;2023-07-31T13:49:40;22.80;59.40
14210;DHT22;7188;56.070;12.698;2023-07-31T13:52:08;22.80;67.00
14210;DHT22;7188;56.070;12.698;2023-07-31T13:54:34;22.80;74.30
14210;DHT22;7188;56.070;12.698;2023-07-31T13:57:00;22.80;45.60
14210;DHT22;7188;56.070;12.698;2023-07-31T13:59:26;22.80;44.60
14210;DHT22;7188;56.070;12.698;2023-07-31T14:01:51;22.80;59.80
14210;DHT22;7188;56.070;12.698;2023-07-31T14:04:17;22.70;21.80
14210;DHT22;7188;56.070;12.698;2023-07-31T14:06:43;22.50;13.80
14210;DHT22;7188;56.070;12.698;2023-07-31T14:09:09;22.40;45.90
14210;DHT22;7188;56.070;12.698;2023-07-31T14:11:35;22.30;71.90
14210;DHT22;7188;56.070;12.698;2023-07-31T14:14:00;22.20;60.50
14210;DHT22;7188;56.070;12.698;2023-07-31T14:16:30;22.10;70.70
14210;DHT22;7188;56.070;12.698;2023-07-31T14:18:55;22.30;88.20
14210;DHT22;7188;56.070;12.698;2023-07-31T14:21:21;22.40;54.10
14210;DHT22;7188;56.070;12.698;2023-07-31T14:23:47;22.40;21.20
14210;DHT22;7188;56.070;12.698;2023-07-31T14:26:12;22.50;1.60
14210;DHT22;7188;56.070;12.698;2023-07-31T14:28:38;22.40;1.00
14210;DHT22;7188;56.070;12.698;2023-07-31T14:31:04;22.30;1.10
14210;DHT22;7188;56.070;12.698;2023-07-31T14:33:30;22.00;17.50
14210;DHT22;7188;56.070;12.698;2023-07-31T14:35:55;21.80;74.60
14210;DHT22;7188;56.070;12.698;2023-07-31T14:38:21;21.90;99.90
14210;DHT22;7188;56.070;12.698;2023-07-31T14:40:47;21.90;32.70
14210;DHT22;7188;56.070;12.698;2023-07-31T14:43:12;21.90;1.00
14210;DHT22;7188;56.070;12.698;2023-07-31T14:45:38;21.80;1.00
14210;DHT22;7188;56.070;12.698;2023-07-31T14:48:04;21.90;1.00
14210;DHT22;7188;56.070;12.698;2023-07-31T14:50:29;22.00;1.00
14210;DHT22;7188;56.070;12.698;2023-07-31T14:52:55;22.10;1.00
14210;DHT22;7188;56.070;12.698;2023-07-31T14:55:21;22.10;1.00
14210;DHT22;7188;56.070;12.698;2023-07-31T14:57:47;22.00;1.00
14210;DHT22;7188;56.070;12.698;2023-07-31T15:00:13;22.00;1.00
14210;DHT22;7188;56.070;12.698;2023-07-31T15:02:40;22.00;50.90
14210;DHT22;7188;56.070;12.698;2023-07-31T15:05:07;22.20;48.40
14210;DHT22;7188;56.070;12.698;2023-07-31T15:07:33;22.40;34.80
14210;DHT22;7188;56.070;12.698;2023-07-31T15:09:59;22.30;12.50
14210;DHT22;7188;56.070;12.698;2023-07-31T15:12:26;22.40;1.00
14210;DHT22;7188;56.070;12.698;2023-07-31T15:14:52;22.40;1.40
14210;DHT22;7188;56.070;12.698;2023-07-31T15:17:17;22.30;1.30
14210;DHT22;7188;56.070;12.698;2023-07-31T15:19:43;22.30;9.40
14210;DHT22;7188;56.070;12.698;2023-07-31T15:22:09;22.10;1.00
14210;DHT22;7188;56.070;12.698;2023-07-31T15:24:35;22.10;1.00
14210;DHT22;7188;56.070;12.698;2023-07-31T15:27:00;22.00;1.00
14210;DHT22;7188;56.070;12.698;2023-07-31T15:29:28;22.10;16.60
14210;DHT22;7188;56.070;12.698;2023-07-31T15:31:54;22.10;71.70
14210;DHT22;7188;56.070;12.698;2023-07-31T15:34:20;22.00;99.90
14210;DHT22;7188;56.070;12.698;2023-07-31T15:36:49;21.80;99.90
14210;DHT22;7188;56.070;12.698;2023-07-31T15:39:18;21.60;99.90
14210;DHT22;7188;56.070;12.698;2023-07-31T15:42:08;21.40;99.90
14210;DHT22;7188;56.070;12.698;2023-07-31T15:44:34;21.20;99.90
14210;DHT22;7188;56.070;12.698;2023-07-31T15:47:00;21.10;99.90
14210;DHT22;7188;56.070;12.698;2023-07-31T15:49:26;21.00;99.90
14210;DHT22;7188;56.070;12.698;2023-07-31T15:51:51;21.00;99.90
14210;DHT22;7188;56.070;12.698;2023-07-31T15:54:17;21.10;1.00